createdAt,value
2017-10-19T00:00:50.732Z,15.34
2017-10-19T00:01:50.715Z,15.32
2017-10-19T00:02:51.039Z,15.29
2017-10-19T00:03:50.690Z,15.24
2017-10-19T00:04:51.001Z,15.21
2017-10-19T00:05:50.652Z,15.12
2017-10-19T00:06:50.960Z,15.2
2017-10-19T00:07:50.643Z,15.1
2017-10-19T00:08:50.275Z,15.22
2017-10-19T00:09:50.580Z,15.22
2017-10-19T00:10:50.899Z,15.27
2017-10-19T00:11:50.558Z,15.22
2017-10-19T00:12:50.518Z,15.24
2017-10-19T00:13:50.181Z,15.2
2017-10-19T00:14:50.485Z,15.22
2017-10-19T00:15:50.791Z,15.17
2017-10-19T00:16:50.769Z,15.16
2017-10-19T00:17:50.757Z,15.17
2017-10-19T00:18:50.743Z,15.13
2017-10-19T00:19:50.730Z,15.14
2017-10-19T00:20:50.387Z,15.21
2017-10-19T00:21:50.361Z,15.22
2017-10-19T00:22:50.344Z,15.34
2017-10-19T00:23:50.317Z,15.21
2017-10-19T00:24:50.311Z,15.14
2017-10-19T00:25:50.630Z,15.14
2017-10-19T00:26:50.599Z,15.13
2017-10-19T00:27:50.565Z,15.22
2017-10-19T00:28:50.549Z,15.13
2017-10-19T00:29:50.521Z,15.09
2017-10-19T00:30:50.522Z,15.13
2017-10-19T00:31:50.506Z,15.12
2017-10-19T00:32:50.484Z,15.2
2017-10-19T00:33:50.138Z,15.21
2017-10-19T00:34:50.118Z,15.22
2017-10-19T00:35:50.422Z,15.12
2017-10-19T00:36:50.440Z,15.1
2017-10-19T00:37:50.408Z,15.2
2017-10-19T00:38:50.376Z,15.09
2017-10-19T00:39:50.367Z,15.1
2017-10-19T00:40:50.334Z,15.12
2017-10-19T00:41:50.314Z,15.1
2017-10-19T00:42:50.306Z,15.16
2017-10-19T00:43:50.314Z,15.14
2017-10-19T00:44:50.286Z,15.1
2017-10-19T00:45:50.259Z,15.09
2017-10-19T00:46:49.900Z,15.04
2017-10-19T00:47:50.221Z,15.07
2017-10-19T00:48:49.867Z,15.03
2017-10-19T00:49:49.868Z,14.95
2017-10-19T00:50:49.828Z,14.82
2017-10-19T00:51:50.131Z,14.82
2017-10-19T00:52:49.797Z,14.73
2017-10-19T00:53:50.096Z,14.73
2017-10-19T00:54:49.814Z,14.72
2017-10-19T00:55:49.413Z,14.84
2017-10-19T00:56:50.060Z,14.85
2017-10-19T00:57:49.691Z,14.84
2017-10-19T00:58:49.706Z,14.6
2017-10-19T00:59:49.981Z,14.63
2017-10-19T01:00:49.641Z,14.62
2017-10-19T01:01:49.944Z,14.5
2017-10-19T01:02:49.928Z,14.42
2017-10-19T01:03:49.912Z,14.35
2017-10-19T01:04:49.672Z,14.17
2017-10-19T01:05:49.562Z,14.11
2017-10-19T01:06:49.534Z,14.25
2017-10-19T01:07:49.512Z,14.35
2017-10-19T01:08:49.497Z,14.4
2017-10-19T01:09:49.821Z,14.44
2017-10-19T01:10:49.463Z,14.53
2017-10-19T01:11:49.781Z,14.51
2017-10-19T01:12:49.739Z,14.4
2017-10-19T01:13:49.399Z,14.51
2017-10-19T01:14:49.470Z,14.44
2017-10-19T01:15:49.391Z,14.4
2017-10-19T01:16:49.343Z,14.51
2017-10-19T01:17:49.394Z,14.42
2017-10-19T01:18:49.654Z,14.47
2017-10-19T01:19:49.294Z,14.47
2017-10-19T01:20:49.581Z,14.36
2017-10-19T01:21:48.939Z,14.44
2017-10-19T01:22:49.558Z,14.4
2017-10-19T01:23:49.212Z,14.54
2017-10-19T01:24:49.525Z,14.6
2017-10-19T01:25:49.191Z,14.6
2017-10-19T01:26:49.154Z,14.58
2017-10-19T01:27:49.470Z,14.57
2017-10-19T01:28:49.452Z,14.57
2017-10-19T01:29:49.109Z,14.54
2017-10-19T01:30:49.415Z,14.39
2017-10-19T01:31:49.147Z,14.48
2017-10-19T01:32:49.372Z,14.3
2017-10-19T01:33:49.022Z,14.36
2017-10-19T01:34:48.775Z,14.46
2017-10-19T01:35:49.315Z,14.44
2017-10-19T01:36:49.298Z,14.5
2017-10-19T01:37:49.053Z,14.48
2017-10-19T01:38:49.261Z,14.48
2017-10-19T01:39:48.942Z,14.57
2017-10-19T01:40:48.655Z,14.51
2017-10-19T01:41:49.201Z,14.57
2017-10-19T01:42:49.190Z,14.62
2017-10-19T01:43:48.833Z,14.57
2017-10-19T01:44:48.491Z,14.54
2017-10-19T01:45:48.810Z,14.5
2017-10-19T01:46:49.103Z,14.53
2017-10-19T01:47:48.435Z,14.4
2017-10-19T01:48:49.061Z,14.5
2017-10-19T01:49:48.401Z,14.51
2017-10-19T01:50:48.719Z,14.51
2017-10-19T01:51:49.015Z,14.51
2017-10-19T01:52:48.681Z,14.51
2017-10-19T01:53:48.653Z,14.5
2017-10-19T01:54:48.996Z,14.51
2017-10-19T01:55:48.932Z,14.51
2017-10-19T01:56:48.600Z,14.42
2017-10-19T01:57:48.891Z,14.46
2017-10-19T01:58:48.563Z,14.51
2017-10-19T01:59:48.843Z,14.44
2017-10-19T02:00:48.843Z,14.5
2017-10-19T02:01:48.832Z,14.5
2017-10-19T02:02:48.811Z,14.47
2017-10-19T02:03:48.148Z,14.48
2017-10-19T02:04:48.120Z,14.53
2017-10-19T02:05:48.419Z,14.47
2017-10-19T02:06:48.720Z,14.44
2017-10-19T02:07:48.710Z,14.38
2017-10-19T02:08:48.367Z,14.33
2017-10-19T02:09:48.343Z,14.32
2017-10-19T02:10:48.647Z,14.38
2017-10-19T02:11:48.632Z,14.38
2017-10-19T02:12:48.630Z,14.38
2017-10-19T02:13:48.593Z,14.35
2017-10-19T02:14:48.251Z,14.32
2017-10-19T02:15:48.555Z,14.35
2017-10-19T02:16:48.221Z,14.36
2017-10-19T02:17:47.916Z,14.26
2017-10-19T02:18:48.189Z,14.28
2017-10-19T02:19:48.159Z,14.29
2017-10-19T02:20:48.463Z,14.21
2017-10-19T02:21:48.130Z,14.25
2017-10-19T02:22:48.102Z,14.26
2017-10-19T02:23:48.419Z,14.33
2017-10-19T02:24:48.071Z,14.21
2017-10-19T02:25:48.050Z,14.26
2017-10-19T02:26:47.709Z,14.28
2017-10-19T02:27:48.010Z,14.3
2017-10-19T02:28:47.989Z,14.29
2017-10-19T02:29:48.013Z,14.29
2017-10-19T02:30:47.631Z,14.32
2017-10-19T02:31:47.930Z,14.33
2017-10-19T02:32:48.229Z,14.3
2017-10-19T02:33:48.219Z,14.28
2017-10-19T02:34:48.195Z,14.22
2017-10-19T02:35:47.865Z,14.21
2017-10-19T02:36:48.179Z,14.21
2017-10-19T02:37:48.160Z,14.26
2017-10-19T02:38:48.131Z,14.2
2017-10-19T02:39:47.791Z,14.25
2017-10-19T02:40:47.879Z,14.21
2017-10-19T02:41:48.080Z,14.21
2017-10-19T02:42:48.059Z,14.15
2017-10-19T02:43:48.040Z,14.18
2017-10-19T02:44:48.068Z,14.15
2017-10-19T02:45:48.007Z,14.21
2017-10-19T02:46:47.970Z,14.18
2017-10-19T02:47:47.971Z,14.17
2017-10-19T02:48:47.690Z,14.18
2017-10-19T02:49:47.929Z,14.13
2017-10-19T02:50:47.587Z,14.18
2017-10-19T02:51:47.882Z,14.14
2017-10-19T02:52:47.879Z,14.13
2017-10-19T02:53:47.854Z,14.05
2017-10-19T02:54:47.832Z,14.15
2017-10-19T02:55:47.540Z,14.07
2017-10-19T02:56:47.792Z,14.14
2017-10-19T02:57:47.460Z,14.13
2017-10-19T02:58:47.112Z,14.13
2017-10-19T02:59:47.731Z,14.07
2017-10-19T03:00:47.720Z,14.11
2017-10-19T03:01:47.468Z,13.99
2017-10-19T03:02:47.362Z,13.93
2017-10-19T03:03:47.350Z,13.99
2017-10-19T03:04:47.318Z,13.96
2017-10-19T03:05:47.343Z,13.95
2017-10-19T03:06:47.600Z,13.93
2017-10-19T03:07:47.601Z,13.95
2017-10-19T03:08:47.240Z,14.02
2017-10-19T03:09:47.368Z,14
2017-10-19T03:10:47.522Z,14
2017-10-19T03:11:47.509Z,13.97
2017-10-19T03:12:47.499Z,13.97
2017-10-19T03:13:47.481Z,13.96
2017-10-19T03:14:47.450Z,13.96
2017-10-19T03:15:47.421Z,13.96
2017-10-19T03:16:47.408Z,13.95
2017-10-19T03:17:47.163Z,13.99
2017-10-19T03:18:47.044Z,14.02
2017-10-19T03:19:47.379Z,14.05
2017-10-19T03:20:47.333Z,14.05
2017-10-19T03:21:46.670Z,13.97
2017-10-19T03:22:46.968Z,13.97
2017-10-19T03:23:47.276Z,13.97
2017-10-19T03:24:47.259Z,13.96
2017-10-19T03:25:46.586Z,13.95
2017-10-19T03:26:46.899Z,13.97
2017-10-19T03:27:47.202Z,13.95
2017-10-19T03:28:46.539Z,13.96
2017-10-19T03:29:46.941Z,13.93
2017-10-19T03:30:46.827Z,13.97
2017-10-19T03:31:47.121Z,13.82
2017-10-19T03:32:46.460Z,13.81
2017-10-19T03:33:47.092Z,13.77
2017-10-19T03:34:47.070Z,13.77
2017-10-19T03:35:46.765Z,13.85
2017-10-19T03:36:47.042Z,13.81
2017-10-19T03:37:47.031Z,13.81
2017-10-19T03:38:46.679Z,13.81
2017-10-19T03:39:46.992Z,13.84
2017-10-19T03:40:46.959Z,13.81
2017-10-19T03:41:46.611Z,13.78
2017-10-19T03:42:46.270Z,13.74
2017-10-19T03:43:46.903Z,13.67
2017-10-19T03:44:46.550Z,13.75
2017-10-19T03:45:46.871Z,13.63
2017-10-19T03:46:46.520Z,13.7
2017-10-19T03:47:46.821Z,13.59
2017-10-19T03:48:46.815Z,13.63
2017-10-19T03:49:46.455Z,13.62
2017-10-19T03:50:46.770Z,13.66
2017-10-19T03:51:46.423Z,13.6
2017-10-19T03:52:46.411Z,13.63
2017-10-19T03:53:46.710Z,13.56
2017-10-19T03:54:46.676Z,13.59
2017-10-19T03:55:46.690Z,13.63
2017-10-19T03:56:46.652Z,13.55
2017-10-19T03:57:46.310Z,13.53
2017-10-19T03:58:46.290Z,13.4
2017-10-19T03:59:45.942Z,13.26
2017-10-19T04:00:46.253Z,13.16
2017-10-19T04:01:46.240Z,13.16
2017-10-19T04:02:45.913Z,13.07
2017-10-19T04:03:46.523Z,12.96
2017-10-19T04:04:46.496Z,12.98
2017-10-19T04:05:46.484Z,12.89
2017-10-19T04:06:46.181Z,12.76
2017-10-19T04:07:46.439Z,12.89
2017-10-19T04:08:46.429Z,12.81
2017-10-19T04:09:46.060Z,13.01
2017-10-19T04:10:46.060Z,13.14
2017-10-19T04:11:46.350Z,13.23
2017-10-19T04:12:46.346Z,13.16
2017-10-19T04:13:46.324Z,13.25
2017-10-19T04:14:46.301Z,13.26
2017-10-19T04:15:46.268Z,13.25
2017-10-19T04:16:45.990Z,13.28
2017-10-19T04:17:45.921Z,13.38
2017-10-19T04:18:46.019Z,13.48
2017-10-19T04:19:45.884Z,13.45
2017-10-19T04:20:46.170Z,13.45
2017-10-19T04:21:45.848Z,13.56
2017-10-19T04:22:46.143Z,13.52
2017-10-19T04:23:45.803Z,13.6
2017-10-19T04:24:45.774Z,13.55
2017-10-19T04:25:46.081Z,13.57
2017-10-19T04:26:46.073Z,13.65
2017-10-19T04:27:45.769Z,13.59
2017-10-19T04:28:45.757Z,13.59
2017-10-19T04:29:46.011Z,13.52
2017-10-19T04:30:45.990Z,13.47
2017-10-19T04:31:45.661Z,13.45
2017-10-19T04:32:45.942Z,13.47
2017-10-19T04:33:45.699Z,13.47
2017-10-19T04:34:45.424Z,13.42
2017-10-19T04:35:45.906Z,13.45
2017-10-19T04:36:45.860Z,13.44
2017-10-19T04:37:45.549Z,13.45
2017-10-19T04:38:45.830Z,13.52
2017-10-19T04:39:45.818Z,13.52
2017-10-19T04:40:45.485Z,13.49
2017-10-19T04:41:45.785Z,13.53
2017-10-19T04:42:45.753Z,13.62
2017-10-19T04:43:45.417Z,13.47
2017-10-19T04:44:45.711Z,13.47
2017-10-19T04:45:45.709Z,13.4
2017-10-19T04:46:45.683Z,13.44
2017-10-19T04:47:45.394Z,13.42
2017-10-19T04:48:45.659Z,13.44
2017-10-19T04:49:45.616Z,13.48
2017-10-19T04:50:45.281Z,13.53
2017-10-19T04:51:45.595Z,13.49
2017-10-19T04:52:45.271Z,13.47
2017-10-19T04:53:45.235Z,13.48
2017-10-19T04:54:45.203Z,13.49
2017-10-19T04:55:45.528Z,13.45
2017-10-19T04:56:45.499Z,13.48
2017-10-19T04:57:45.521Z,13.44
2017-10-19T04:58:45.119Z,13.47
2017-10-19T04:59:45.431Z,13.45
2017-10-19T05:00:45.100Z,13.4
2017-10-19T05:01:45.409Z,13.44
2017-10-19T05:02:45.374Z,13.41
2017-10-19T05:03:45.048Z,13.38
2017-10-19T05:04:45.008Z,13.38
2017-10-19T05:05:45.321Z,13.4
2017-10-19T05:06:44.638Z,13.35
2017-10-19T05:07:44.638Z,13.33
2017-10-19T05:08:45.245Z,13.44
2017-10-19T05:09:45.264Z,13.37
2017-10-19T05:10:45.233Z,13.38
2017-10-19T05:11:45.196Z,13.38
2017-10-19T05:12:45.190Z,13.42
2017-10-19T05:13:45.157Z,13.41
2017-10-19T05:14:45.135Z,13.35
2017-10-19T05:15:44.810Z,13.42
2017-10-19T05:16:44.781Z,13.35
2017-10-19T05:17:44.764Z,13.37
2017-10-19T05:18:45.062Z,13.37
2017-10-19T05:19:44.721Z,13.31
2017-10-19T05:20:45.035Z,13.29
2017-10-19T05:21:44.999Z,13.35
2017-10-19T05:22:44.663Z,13.31
2017-10-19T05:23:44.651Z,13.4
2017-10-19T05:24:44.959Z,13.31
2017-10-19T05:25:44.936Z,13.31
2017-10-19T05:26:44.911Z,13.29
2017-10-19T05:27:44.892Z,13.37
2017-10-19T05:28:44.560Z,13.37
2017-10-19T05:29:44.241Z,13.28
2017-10-19T05:30:44.504Z,13.35
2017-10-19T05:31:44.484Z,13.33
2017-10-19T05:32:44.461Z,13.22
2017-10-19T05:33:44.771Z,13.16
2017-10-19T05:34:44.740Z,13.04
2017-10-19T05:35:44.732Z,13.03
2017-10-19T05:36:44.391Z,13.08
2017-10-19T05:37:44.381Z,13.08
2017-10-19T05:38:44.679Z,13.04
2017-10-19T05:39:44.651Z,13.15
2017-10-19T05:40:44.643Z,13.14
2017-10-19T05:41:44.624Z,12.98
2017-10-19T05:42:44.603Z,13.07
2017-10-19T05:43:44.254Z,13.14
2017-10-19T05:44:44.572Z,13.07
2017-10-19T05:45:44.220Z,13.1
2017-10-19T05:46:44.520Z,13.14
2017-10-19T05:47:44.173Z,13.08
2017-10-19T05:48:44.483Z,13.08
2017-10-19T05:49:44.470Z,13.08
2017-10-19T05:50:44.451Z,13.16
2017-10-19T05:51:44.088Z,13.18
2017-10-19T05:52:44.093Z,13.07
2017-10-19T05:53:44.379Z,13.23
2017-10-19T05:54:44.371Z,13.1
2017-10-19T05:55:44.336Z,13.18
2017-10-19T05:56:44.101Z,13.01
2017-10-19T05:57:43.990Z,13.11
2017-10-19T05:58:44.271Z,13.1
2017-10-19T05:59:44.271Z,13.11
2017-10-19T06:00:44.261Z,13.14
2017-10-19T06:01:44.231Z,13.1
2017-10-19T06:02:43.574Z,13.16
2017-10-19T06:03:44.193Z,13.06
2017-10-19T06:04:44.160Z,13.14
2017-10-19T06:05:43.823Z,13.14
2017-10-19T06:06:43.810Z,13.11
2017-10-19T06:07:44.098Z,13.22
2017-10-19T06:08:44.101Z,13.15
2017-10-19T06:09:43.776Z,13.18
2017-10-19T06:10:44.087Z,13.15
2017-10-19T06:11:43.713Z,13.31
2017-10-19T06:12:43.743Z,13.33
2017-10-19T06:13:43.823Z,13.23
2017-10-19T06:14:43.746Z,13.31
2017-10-19T06:15:43.679Z,13.23
2017-10-19T06:16:43.617Z,13.23
2017-10-19T06:17:43.641Z,13.18
2017-10-19T06:18:43.653Z,13.19
2017-10-19T06:19:43.871Z,13.22
2017-10-19T06:20:43.870Z,13.04
2017-10-19T06:21:43.521Z,13.1
2017-10-19T06:22:43.809Z,13.03
2017-10-19T06:23:43.480Z,13.06
2017-10-19T06:24:43.783Z,13.1
2017-10-19T06:25:43.540Z,13.1
2017-10-19T06:26:43.450Z,13.08
2017-10-19T06:27:43.390Z,13.1
2017-10-19T06:28:43.701Z,13.07
2017-10-19T06:29:43.690Z,13.18
2017-10-19T06:30:43.344Z,13.26
2017-10-19T06:31:43.383Z,13.25
2017-10-19T06:32:43.302Z,13.48
2017-10-19T06:33:43.601Z,13.55
2017-10-19T06:34:42.944Z,13.63
2017-10-19T06:35:43.559Z,13.71
2017-10-19T06:36:43.223Z,13.78
2017-10-19T06:37:43.259Z,13.8
2017-10-19T06:38:43.179Z,13.88
2017-10-19T06:39:43.190Z,14
2017-10-19T06:40:43.176Z,14.15
2017-10-19T06:41:43.460Z,14.25
2017-10-19T06:42:43.113Z,14.3
2017-10-19T06:43:43.419Z,14.48
2017-10-19T06:44:43.074Z,14.38
2017-10-19T06:45:43.380Z,14.57
2017-10-19T06:46:43.369Z,14.72
2017-10-19T06:47:43.006Z,14.89
2017-10-19T06:48:43.017Z,15.1
2017-10-19T06:49:43.325Z,15.2
2017-10-19T06:50:42.958Z,15.27
2017-10-19T06:51:43.279Z,15.42
2017-10-19T06:52:43.242Z,15.47
2017-10-19T06:53:43.224Z,15.58
2017-10-19T06:54:43.227Z,15.72
2017-10-19T06:55:43.213Z,15.9
2017-10-19T06:56:42.859Z,16.08
2017-10-19T06:57:43.158Z,16.1
2017-10-19T06:58:42.818Z,16.15
2017-10-19T06:59:43.143Z,16.28
2017-10-19T07:00:43.130Z,16.34
2017-10-19T07:01:43.104Z,16.42
2017-10-19T07:02:43.089Z,16.5
2017-10-19T07:03:43.084Z,16.61
2017-10-19T07:04:43.043Z,16.76
2017-10-19T07:05:43.043Z,16.82
2017-10-19T07:06:43.012Z,16.82
2017-10-19T07:07:42.997Z,16.9
2017-10-19T07:08:42.963Z,17.08
2017-10-19T07:09:42.960Z,17.15
2017-10-19T07:10:42.944Z,17.19
2017-10-19T07:11:42.621Z,17.33
2017-10-19T07:12:42.585Z,17.46
2017-10-19T07:13:42.570Z,17.49
2017-10-19T07:14:42.879Z,17.52
2017-10-19T07:15:42.537Z,17.7
2017-10-19T07:16:42.525Z,17.78
2017-10-19T07:17:42.833Z,17.78
2017-10-19T07:18:42.824Z,17.78
2017-10-19T07:19:42.481Z,17.78
2017-10-19T07:20:42.783Z,17.96
2017-10-19T07:21:42.442Z,17.85
2017-10-19T07:22:42.549Z,17.86
2017-10-19T07:23:42.732Z,17.85
2017-10-19T07:24:42.720Z,17.95
2017-10-19T07:25:42.710Z,18.14
2017-10-19T07:26:42.741Z,18.19
2017-10-19T07:27:42.671Z,18.35
2017-10-19T07:28:42.672Z,18.33
2017-10-19T07:29:42.663Z,18.41
2017-10-19T07:30:42.401Z,18.66
2017-10-19T07:31:42.292Z,18.82
2017-10-19T07:32:42.602Z,19.16
2017-10-19T07:33:42.603Z,19.33
2017-10-19T07:34:42.580Z,19.06
2017-10-19T07:35:42.572Z,18.85
2017-10-19T07:36:42.328Z,18.96
2017-10-19T07:37:42.545Z,18.97
2017-10-19T07:38:42.213Z,19.06
2017-10-19T07:39:42.518Z,19.25
2017-10-19T07:40:42.553Z,19.53
2017-10-19T07:41:42.170Z,19
2017-10-19T07:42:42.225Z,19.37
2017-10-19T07:43:42.169Z,19.56
2017-10-19T07:44:42.483Z,19.83
2017-10-19T07:45:42.123Z,20.18
2017-10-19T07:46:42.111Z,20.31
2017-10-19T07:47:42.137Z,20.6
2017-10-19T07:48:42.451Z,20.88
2017-10-19T07:49:42.081Z,21.25
2017-10-19T07:50:42.418Z,21.26
2017-10-19T07:51:42.194Z,21.41
2017-10-19T07:52:42.505Z,21.15
2017-10-19T07:53:42.363Z,21.21
2017-10-19T07:54:42.335Z,21.28
2017-10-19T07:55:42.006Z,20.97
2017-10-19T07:56:41.686Z,21.17
2017-10-19T07:57:41.703Z,21.36
2017-10-19T07:58:42.295Z,21.68
2017-10-19T07:59:42.300Z,21.81
2017-10-19T08:00:42.314Z,21.93
2017-10-19T08:01:42.263Z,21.55
2017-10-19T08:02:41.975Z,21.39
2017-10-19T08:03:41.926Z,21.25
2017-10-19T08:04:42.243Z,21.4
2017-10-19T08:05:42.228Z,21.62
2017-10-19T08:06:42.245Z,21.43
2017-10-19T08:07:41.887Z,21.54
2017-10-19T08:08:42.205Z,21.02
2017-10-19T08:09:41.860Z,20.84
2017-10-19T08:10:42.195Z,20.76
2017-10-19T08:11:41.843Z,21.33
2017-10-19T08:12:41.854Z,21.37
2017-10-19T08:13:42.152Z,21.41
2017-10-19T08:14:42.142Z,21.64
2017-10-19T08:15:41.813Z,21.9
2017-10-19T08:16:42.142Z,22.22
2017-10-19T08:17:41.798Z,22.2
2017-10-19T08:18:42.123Z,22.03
2017-10-19T08:19:42.103Z,22.12
2017-10-19T08:20:42.116Z,22.39
2017-10-19T08:21:42.082Z,22.57
2017-10-19T08:22:42.119Z,22.8
2017-10-19T08:23:42.176Z,22.92
2017-10-19T08:24:42.065Z,22.11
2017-10-19T08:25:42.067Z,22.17
2017-10-19T08:26:42.157Z,22.35
2017-10-19T08:27:41.803Z,22.47
2017-10-19T08:28:41.383Z,22.69
2017-10-19T08:29:41.702Z,22.37
2017-10-19T08:30:42.074Z,21.59
2017-10-19T08:31:42.057Z,21.86
2017-10-19T08:32:42.089Z,22.17
2017-10-19T08:33:42.084Z,22.47
2017-10-19T08:34:42.035Z,22.45
2017-10-19T08:35:41.974Z,21.65
2017-10-19T08:36:41.643Z,21.84
2017-10-19T08:37:41.315Z,21.24
2017-10-19T08:38:41.611Z,20.91
2017-10-19T08:39:41.291Z,20.55
2017-10-19T08:40:41.943Z,20.73
2017-10-19T08:41:41.924Z,21.11
2017-10-19T08:42:41.914Z,21.49
2017-10-19T08:43:41.935Z,21.46
2017-10-19T08:44:41.575Z,21.93
2017-10-19T08:45:41.564Z,22.35
2017-10-19T08:46:41.567Z,22.85
2017-10-19T08:47:41.226Z,23.24
2017-10-19T08:48:41.582Z,23.47
2017-10-19T08:49:41.866Z,23.65
2017-10-19T08:50:41.853Z,22.8
2017-10-19T08:51:41.518Z,22.18
2017-10-19T08:52:41.831Z,22.37
2017-10-19T08:53:41.846Z,22.2
2017-10-19T08:54:41.844Z,21.5
2017-10-19T08:55:41.560Z,21.4
2017-10-19T08:56:41.485Z,21.5
2017-10-19T08:57:41.805Z,21.93
2017-10-19T08:58:41.475Z,22.47
2017-10-19T08:59:41.773Z,22.99
2017-10-19T09:00:41.773Z,23.41
2017-10-19T09:01:41.780Z,23.13
2017-10-19T09:02:41.778Z,23.07
2017-10-19T09:03:41.754Z,23.24
2017-10-19T09:04:41.746Z,23.36
2017-10-19T09:05:41.744Z,23.69
2017-10-19T09:06:41.413Z,24.14
2017-10-19T09:07:41.474Z,24.47
2017-10-19T09:08:41.718Z,24.7
2017-10-19T09:09:41.760Z,24.96
2017-10-19T09:10:41.392Z,25.11
2017-10-19T09:11:41.713Z,25.39
2017-10-19T09:12:41.715Z,25.36
2017-10-19T09:13:41.372Z,25.42
2017-10-19T09:14:41.746Z,25.29
2017-10-19T09:15:41.366Z,25.3
2017-10-19T09:16:41.334Z,25.36
2017-10-19T09:17:41.673Z,25.39
2017-10-19T09:18:41.008Z,25.08
2017-10-19T09:19:41.652Z,24.96
2017-10-19T09:20:41.637Z,24.77
2017-10-19T09:21:41.652Z,24.49
2017-10-19T09:22:41.303Z,23.95
2017-10-19T09:23:41.314Z,24.24
2017-10-19T09:24:41.624Z,24.7
2017-10-19T09:25:41.293Z,24.61
2017-10-19T09:26:41.293Z,24.71
2017-10-19T09:27:41.604Z,24.99
2017-10-19T09:28:41.273Z,24.9
2017-10-19T09:29:41.615Z,24.55
2017-10-19T09:30:41.591Z,24.32
2017-10-19T09:31:41.253Z,23.96
2017-10-19T09:32:41.265Z,23.28
2017-10-19T09:33:41.566Z,22.79
2017-10-19T09:34:41.573Z,23.51
2017-10-19T09:35:41.563Z,23.81
2017-10-19T09:36:41.227Z,24.46
2017-10-19T09:37:41.546Z,24.92
2017-10-19T09:38:41.536Z,25.27
2017-10-19T09:39:41.211Z,25.79
2017-10-19T09:40:41.534Z,25.85
2017-10-19T09:41:41.515Z,26.01
2017-10-19T09:42:41.515Z,26.39
2017-10-19T09:43:40.863Z,26.66
2017-10-19T09:44:41.173Z,26.34
2017-10-19T09:45:41.506Z,26.29
2017-10-19T09:46:41.165Z,25.95
2017-10-19T09:47:41.493Z,25.99
2017-10-19T09:48:41.492Z,26.32
2017-10-19T09:49:41.549Z,26.11
2017-10-19T09:50:41.466Z,25.52
2017-10-19T09:51:41.484Z,25.56
2017-10-19T09:52:41.143Z,25.71
2017-10-19T09:53:41.125Z,26.2
2017-10-19T09:54:41.455Z,25.21
2017-10-19T09:55:41.461Z,24.8
2017-10-19T09:56:41.463Z,24.44
2017-10-19T09:57:41.447Z,23.78
2017-10-19T09:58:41.423Z,23.73
2017-10-19T09:59:41.443Z,23.77
2017-10-19T10:00:41.434Z,24.24
2017-10-19T10:01:41.412Z,25.03
2017-10-19T10:02:41.419Z,25.51
2017-10-19T10:03:41.396Z,26
2017-10-19T10:04:41.387Z,26.38
2017-10-19T10:05:41.062Z,26.52
2017-10-19T10:06:41.398Z,26.84
2017-10-19T10:07:41.416Z,26.76
2017-10-19T10:08:41.374Z,27
2017-10-19T10:09:40.726Z,26.81
2017-10-19T10:10:41.382Z,26.76
2017-10-19T10:11:41.362Z,26.82
2017-10-19T10:12:41.045Z,27.09
2017-10-19T10:13:41.021Z,25.84
2017-10-19T10:14:41.348Z,25.63
2017-10-19T10:15:41.330Z,26.22
2017-10-19T10:16:41.001Z,26.64
2017-10-19T10:17:41.323Z,27.19
2017-10-19T10:18:41.311Z,27.55
2017-10-19T10:19:41.313Z,27.33
2017-10-19T10:20:41.320Z,27.36
2017-10-19T10:21:40.979Z,26.41
2017-10-19T10:22:41.305Z,25.1
2017-10-19T10:23:41.283Z,25.34
2017-10-19T10:24:41.282Z,25.52
2017-10-19T10:25:41.281Z,25.34
2017-10-19T10:26:41.430Z,25.44
2017-10-19T10:27:41.270Z,25.37
2017-10-19T10:28:41.311Z,25.71
2017-10-19T10:29:41.249Z,24.9
2017-10-19T10:30:40.925Z,25.47
2017-10-19T10:31:40.920Z,25.7
2017-10-19T10:32:41.229Z,26.33
2017-10-19T10:33:40.908Z,26.82
2017-10-19T10:34:40.893Z,26.44
2017-10-19T10:35:40.889Z,26.15
2017-10-19T10:36:40.886Z,26.44
2017-10-19T10:37:41.224Z,26.94
2017-10-19T10:38:41.220Z,27.25
2017-10-19T10:39:41.189Z,27.38
2017-10-19T10:40:40.866Z,27.22
2017-10-19T10:41:41.172Z,27.28
2017-10-19T10:42:41.172Z,27.34
2017-10-19T10:43:40.869Z,27.41
2017-10-19T10:44:40.827Z,26.93
2017-10-19T10:45:40.822Z,26.7
2017-10-19T10:46:40.499Z,26.63
2017-10-19T10:47:40.830Z,26.6
2017-10-19T10:48:41.120Z,26.56
2017-10-19T10:49:40.803Z,26.66
2017-10-19T10:50:40.802Z,26.91
2017-10-19T10:51:40.822Z,26.97
2017-10-19T10:52:40.460Z,26.69
2017-10-19T10:53:40.791Z,26.75
2017-10-19T10:54:40.782Z,26.82
2017-10-19T10:55:40.771Z,26.67
2017-10-19T10:56:40.761Z,26.37
2017-10-19T10:57:41.078Z,26.39
2017-10-19T10:58:40.737Z,26.44
2017-10-19T10:59:40.830Z,26.84
2017-10-19T11:00:40.724Z,27.09
2017-10-19T11:01:40.729Z,27.22
2017-10-19T11:02:41.060Z,27.21
2017-10-19T11:03:41.040Z,26.98
2017-10-19T11:04:41.011Z,26.79
2017-10-19T11:05:40.803Z,26.07
2017-10-19T11:06:41.012Z,25.77
2017-10-19T11:07:40.732Z,25.58
2017-10-19T11:08:40.999Z,25.33
2017-10-19T11:09:40.673Z,25.26
2017-10-19T11:10:40.991Z,25.73
2017-10-19T11:11:41.025Z,26.39
2017-10-19T11:12:40.974Z,26.64
2017-10-19T11:13:40.993Z,26.69
2017-10-19T11:14:40.982Z,26.38
2017-10-19T11:15:40.640Z,26.59
2017-10-19T11:16:40.942Z,26.48
2017-10-19T11:17:40.936Z,25.39
2017-10-19T11:18:40.944Z,24.51
2017-10-19T11:19:40.271Z,24.42
2017-10-19T11:20:40.911Z,24.33
2017-10-19T11:21:40.922Z,24.39
2017-10-19T11:22:40.915Z,24.84
2017-10-19T11:23:40.585Z,24.9
2017-10-19T11:24:40.877Z,25.02
2017-10-19T11:25:40.883Z,25.07
2017-10-19T11:26:40.864Z,25.18
2017-10-19T11:27:40.573Z,24.39
2017-10-19T11:28:40.844Z,24.09
2017-10-19T11:29:40.861Z,24.71
2017-10-19T11:30:40.842Z,25
2017-10-19T11:31:40.819Z,24.8
2017-10-19T11:32:40.834Z,25.15
2017-10-19T11:33:40.813Z,25.54
2017-10-19T11:34:40.470Z,26.03
2017-10-19T11:35:40.783Z,26.38
2017-10-19T11:36:40.802Z,26.69
2017-10-19T11:37:40.781Z,26.78
2017-10-19T11:38:40.774Z,26.38
2017-10-19T11:39:40.870Z,26.11
2017-10-19T11:40:40.847Z,25.42
2017-10-19T11:41:40.758Z,24.78
2017-10-19T11:42:40.836Z,24.8
2017-10-19T11:43:40.392Z,24.15
2017-10-19T11:44:40.719Z,24.1
2017-10-19T11:45:40.737Z,23.99
2017-10-19T11:46:40.783Z,23.77
2017-10-19T11:47:40.692Z,23.7
2017-10-19T11:48:40.694Z,23.8
2017-10-19T11:49:40.675Z,23.82
2017-10-19T11:50:40.745Z,23.95
2017-10-19T11:51:40.653Z,24.36
2017-10-19T11:52:40.675Z,24.07
2017-10-19T11:53:40.305Z,24.28
2017-10-19T11:54:40.618Z,24.58
2017-10-19T11:55:40.658Z,24.19
2017-10-19T11:56:40.331Z,23.75
2017-10-19T11:57:40.254Z,23.75
2017-10-19T11:58:40.563Z,23.84
2017-10-19T11:59:40.595Z,23.78
2017-10-19T12:00:40.225Z,23.73
2017-10-19T12:01:40.218Z,23.82
2017-10-19T12:02:40.216Z,24.07
2017-10-19T12:03:40.540Z,24.32
2017-10-19T12:04:40.180Z,24.39
2017-10-19T12:05:40.171Z,24.59
2017-10-19T12:06:40.508Z,24.9
2017-10-19T12:07:40.491Z,24.78
2017-10-19T12:08:40.483Z,24.92
2017-10-19T12:09:40.479Z,24.95
2017-10-19T12:10:40.465Z,24.77
2017-10-19T12:11:40.432Z,24.47
2017-10-19T12:12:40.459Z,24.32
2017-10-19T12:13:40.420Z,24.18
2017-10-19T12:14:40.423Z,24.1
2017-10-19T12:15:40.087Z,24.03
2017-10-19T12:16:40.070Z,24.12
2017-10-19T12:17:40.404Z,24.24
2017-10-19T12:18:40.376Z,23.59
2017-10-19T12:19:40.364Z,23.38
2017-10-19T12:20:40.379Z,23.36
2017-10-19T12:21:40.337Z,23.04
2017-10-19T12:22:40.330Z,23.25
2017-10-19T12:23:40.323Z,23.66
2017-10-19T12:24:40.311Z,23.75
2017-10-19T12:25:40.312Z,23.96
2017-10-19T12:26:40.419Z,23.55
2017-10-19T12:27:40.302Z,23.6
2017-10-19T12:28:40.271Z,23.96
2017-10-19T12:29:40.261Z,24.21
2017-10-19T12:30:40.276Z,24.46
2017-10-19T12:31:39.591Z,24.58
2017-10-19T12:32:39.918Z,24.57
2017-10-19T12:33:40.220Z,24.4
2017-10-19T12:34:40.216Z,24.42
2017-10-19T12:35:40.221Z,24.74
2017-10-19T12:36:39.868Z,24.8
2017-10-19T12:37:39.856Z,24.9
2017-10-19T12:38:39.941Z,25.12
2017-10-19T12:39:39.511Z,25.33
2017-10-19T12:40:40.183Z,25.44
2017-10-19T12:41:40.130Z,25.66
2017-10-19T12:42:40.142Z,25.26
2017-10-19T12:43:40.113Z,24.78
2017-10-19T12:44:39.790Z,24.49
2017-10-19T12:45:39.780Z,24.1
2017-10-19T12:46:39.760Z,24.39
2017-10-19T12:47:39.761Z,24.65
2017-10-19T12:48:39.747Z,24.29
2017-10-19T12:49:39.737Z,24.36
2017-10-19T12:50:40.050Z,23.91
2017-10-19T12:51:39.711Z,23.69
2017-10-19T12:52:39.701Z,23.78
2017-10-19T12:53:39.698Z,24.24
2017-10-19T12:54:39.701Z,24.54
2017-10-19T12:55:39.665Z,24.59
2017-10-19T12:56:39.652Z,24.74